createdAt,value
2019-04-11T00:01:10.272Z,13.53
2019-04-11T00:03:42.547Z,11.57
2019-04-11T00:06:15.864Z,13.25
2019-04-11T00:08:48.164Z,13.00
2019-04-11T00:11:21.828Z,11.95
2019-04-11T00:13:53.899Z,13.13
2019-04-11T00:16:26.082Z,12.30
2019-04-11T00:18:58.884Z,12.28
2019-04-11T00:21:30.985Z,11.65
2019-04-11T00:24:03.051Z,11.10
2019-04-11T00:26:38.234Z,12.63
2019-04-11T00:29:10.405Z,12.80
2019-04-11T00:31:43.179Z,12.90
2019-04-11T00:34:15.245Z,12.68
2019-04-11T00:36:48.410Z,11.70
2019-04-11T00:39:21.492Z,11.57
2019-04-11T00:41:54.391Z,11.80
2019-04-11T00:44:27.221Z,12.65
2019-04-11T00:47:00.473Z,11.60
2019-04-11T00:49:32.942Z,13.25
2019-04-11T00:52:06.542Z,13.43
2019-04-11T00:54:38.656Z,12.40
2019-04-11T00:57:10.727Z,12.98
2019-04-11T00:59:42.739Z,11.35
2019-04-11T01:02:15.782Z,11.78
2019-04-11T01:04:48.773Z,11.30
2019-04-11T01:07:21.387Z,11.15
2019-04-11T01:09:54.599Z,11.60
2019-04-11T01:12:28.927Z,11.68
2019-04-11T01:15:01.107Z,12.13
2019-04-11T01:17:33.658Z,11.15
2019-04-11T01:20:11.250Z,11.15
2019-04-11T01:22:43.202Z,11.20
2019-04-11T01:25:15.190Z,11.53
2019-04-11T01:27:48.016Z,12.53
2019-04-11T01:30:27.007Z,11.68
2019-04-11T01:32:59.134Z,10.75
2019-04-11T01:35:31.237Z,11.35
2019-04-11T01:38:04.045Z,11.18
2019-04-11T01:40:36.115Z,10.98
2019-04-11T01:43:08.175Z,11.45
2019-04-11T01:45:41.241Z,10.98
2019-04-11T01:48:19.511Z,11.40
2019-04-11T01:50:51.867Z,10.43
2019-04-11T01:53:24.764Z,11.28
2019-04-11T01:55:56.961Z,11.05
2019-04-11T01:58:28.962Z,10.40
2019-04-11T02:01:10.532Z,11.03
2019-04-11T02:03:49.806Z,11.30
2019-04-11T02:06:22.235Z,11.68
2019-04-11T02:08:55.633Z,10.68
2019-04-11T02:11:27.839Z,10.95
2019-04-11T02:14:12.056Z,10.20
2019-04-11T02:16:34.803Z,10.65
2019-04-11T02:19:07.939Z,11.20
2019-04-11T02:21:40.165Z,11.45
2019-04-11T02:24:37.413Z,10.85
2019-04-11T02:27:34.834Z,10.13
2019-04-11T02:30:08.972Z,11.68
2019-04-11T03:12:09.473Z,10.65
2019-04-11T03:16:17.258Z,10.63
2019-04-11T03:19:40.866Z,11.45
2019-04-11T03:29:40.651Z,10.30
2019-04-11T03:37:00.085Z,10.32
2019-04-11T03:43:00.282Z,11.70
2019-04-11T03:46:05.286Z,10.10
2019-04-11T03:48:47.179Z,10.30
2019-04-11T03:54:42.458Z,11.80
2019-04-11T03:57:15.675Z,11.53
2019-04-11T03:59:48.494Z,12.00
2019-04-11T04:02:22.287Z,11.05
2019-04-11T04:05:13.198Z,11.65
2019-04-11T04:08:06.175Z,12.37
2019-04-11T04:11:22.258Z,11.93
2019-04-11T04:17:59.565Z,13.05
2019-04-11T04:24:00.087Z,12.25
2019-04-11T04:27:17.284Z,14.35
2019-04-11T04:30:06.005Z,13.93
2019-04-11T04:32:47.019Z,11.85
2019-04-11T04:35:26.155Z,12.23
2019-04-11T04:38:18.800Z,11.60
2019-04-11T04:41:30.747Z,11.40
2019-04-11T04:44:35.533Z,10.85
2019-04-11T04:47:26.438Z,10.75
2019-04-11T04:50:34.257Z,10.28
2019-04-11T04:53:27.712Z,12.45
2019-04-11T04:55:57.772Z,11.73
2019-04-11T04:58:31.558Z,11.20
2019-04-11T05:01:10.005Z,11.78
2019-04-11T05:04:02.280Z,12.30
2019-04-11T05:06:56.831Z,11.48
2019-04-11T05:09:43.690Z,12.63
2019-04-11T05:12:18.446Z,10.82
2019-04-11T05:15:30.221Z,12.18
2019-04-11T05:18:19.979Z,12.88
2019-04-11T05:21:08.674Z,12.55
2019-04-11T05:23:59.924Z,12.00
2019-04-11T05:26:43.976Z,11.57
2019-04-11T05:29:17.168Z,12.45
2019-04-11T05:31:56.717Z,12.65
2019-04-11T05:34:58.493Z,11.28
2019-04-11T05:37:43.003Z,11.80
2019-04-11T05:40:34.464Z,10.78
2019-04-11T05:43:19.648Z,12.15
2019-04-11T05:46:26.449Z,12.07
2019-04-11T05:52:15.954Z,12.43
2019-04-11T05:55:11.567Z,12.68
2019-04-11T05:58:05.932Z,12.15
2019-04-11T06:01:18.781Z,12.75
2019-04-11T06:04:20.484Z,12.55
2019-04-11T06:07:23.167Z,12.70
2019-04-11T06:10:24.097Z,12.68
2019-04-11T06:13:22.560Z,13.48
2019-04-11T06:16:12.556Z,11.95
2019-04-11T06:19:23.008Z,11.65
2019-04-11T06:22:29.768Z,11.73
2019-04-11T06:25:33.250Z,11.60
2019-04-11T06:28:38.085Z,11.68
2019-04-11T06:31:49.410Z,11.43
2019-04-11T06:34:39.683Z,10.98
2019-04-11T06:37:52.192Z,10.95
2019-04-11T06:40:41.901Z,11.18
2019-04-11T06:43:52.314Z,11.63
2019-04-11T06:50:31.292Z,11.83
2019-04-11T06:53:34.432Z,12.53
2019-04-11T06:56:52.047Z,11.55
2019-04-11T06:59:44.895Z,11.20
2019-04-11T07:06:07.025Z,12.45
2019-04-11T07:09:10.362Z,12.35
2019-04-11T07:12:01.386Z,11.03
2019-04-11T07:15:02.453Z,11.28
2019-04-11T07:18:24.815Z,13.13
2019-04-11T07:21:02.928Z,13.20
2019-04-11T07:24:24.963Z,14.50
2019-04-11T07:27:18.634Z,12.75
2019-04-11T07:30:09.550Z,12.50
2019-04-11T07:32:42.753Z,12.70
2019-04-11T07:35:53.317Z,13.18
2019-04-11T07:38:54.372Z,12.93
2019-04-11T07:42:09.294Z,12.65
2019-04-11T07:45:32.231Z,12.37
2019-04-11T07:48:15.167Z,12.60
2019-04-11T07:51:45.008Z,12.90
2019-04-11T07:54:20.160Z,12.82
2019-04-11T07:57:42.587Z,12.58
2019-04-11T08:00:36.718Z,13.03
2019-04-11T08:07:08.760Z,13.18
2019-04-11T08:12:56.907Z,14.45
2019-04-11T08:15:59.390Z,14.38
2019-04-11T08:19:09.745Z,12.13
2019-04-11T08:22:00.962Z,13.15
2019-04-11T08:25:11.182Z,12.18
2019-04-11T08:28:01.354Z,13.48
2019-04-11T08:30:50.954Z,13.20
2019-04-11T08:33:42.601Z,13.32
2019-04-11T08:36:33.844Z,13.75
2019-04-11T08:39:29.322Z,14.20
2019-04-11T08:42:34.287Z,14.28
2019-04-11T08:45:18.149Z,14.47
2019-04-11T08:48:10.830Z,13.83
2019-04-11T08:51:05.223Z,16.02
2019-04-11T08:54:15.837Z,13.98
2019-04-11T08:57:01.213Z,14.90
2019-04-11T08:59:59.923Z,13.80
2019-04-11T09:03:13.258Z,13.68
2019-04-11T09:06:14.689Z,14.20
2019-04-11T09:09:15.253Z,15.08
2019-04-11T09:12:10.023Z,15.98
2019-04-11T09:15:16.928Z,15.13
2019-04-11T09:18:28.149Z,14.00
2019-04-11T09:23:57.747Z,15.43
2019-04-11T09:30:13.329Z,15.58
2019-04-11T09:33:28.863Z,14.45
2019-04-11T09:36:32.316Z,14.85
2019-04-11T09:39:43.428Z,15.72
2019-04-11T09:42:47.113Z,14.87
2019-04-11T09:45:57.752Z,15.10
2019-04-11T09:49:02.451Z,15.88
2019-04-11T09:52:12.820Z,14.90
2019-04-11T09:55:04.494Z,15.23
2019-04-11T09:57:41.973Z,14.53
2019-04-11T10:00:51.219Z,15.75
2019-04-11T10:03:43.006Z,15.48
2019-04-11T10:06:46.602Z,16.55
2019-04-11T10:10:07.228Z,16.12
2019-04-11T10:13:10.835Z,14.73
2019-04-11T10:16:22.150Z,15.93
2019-04-11T10:19:13.807Z,15.53
2019-04-11T10:29:30.415Z,16.62
2019-04-11T10:35:40.768Z,16.77
2019-04-11T10:38:44.777Z,15.90
2019-04-11T10:45:04.690Z,17.23
2019-04-11T10:47:45.001Z,18.02
2019-04-11T10:53:37.432Z,16.35
2019-04-11T11:00:14.257Z,18.50
2019-04-11T11:03:18.633Z,19.10
2019-04-11T11:09:19.865Z,19.12
2019-04-11T11:12:23.208Z,18.95
2019-04-11T11:19:26.253Z,17.12
2019-04-11T11:22:18.902Z,18.10
2019-04-11T11:25:37.124Z,18.95
2019-04-11T11:28:17.909Z,17.82
2019-04-11T11:34:51.285Z,18.10
2019-04-11T11:37:43.387Z,16.55
2019-04-11T11:46:54.151Z,18.12
2019-04-11T11:49:49.933Z,18.98
2019-04-11T11:56:22.035Z,18.37
2019-04-11T12:24:28.981Z,17.60
2019-04-11T12:27:35.461Z,17.50
2019-04-11T12:34:01.682Z,17.62
2019-04-11T12:41:44.758Z,16.07
2019-04-11T12:44:46.549Z,17.95
2019-04-11T12:47:46.955Z,17.20
2019-04-11T12:50:58.588Z,17.30
2019-04-11T12:53:43.542Z,17.00
2019-04-11T12:57:14.396Z,17.12
2019-04-11T13:00:11.585Z,16.87
2019-04-11T13:03:34.099Z,16.87
2019-04-11T13:13:59.381Z,18.40
2019-04-11T13:16:59.994Z,15.40
2019-04-11T13:33:27.216Z,15.68
2019-04-11T13:36:45.268Z,17.65
2019-04-11T13:39:38.511Z,16.45
2019-04-11T13:45:56.670Z,17.20
2019-04-11T13:49:01.705Z,16.75
2019-04-11T13:55:57.099Z,15.93
2019-04-11T13:58:38.449Z,16.90
2019-04-11T14:01:29.717Z,16.20
2019-04-11T14:04:20.241Z,16.50
2019-04-11T14:07:13.808Z,16.37
2019-04-11T14:09:59.154Z,15.70
2019-04-11T14:12:55.483Z,16.75
2019-04-11T14:15:29.532Z,17.07
2019-04-11T14:18:20.644Z,15.55
2019-04-11T14:21:13.333Z,17.57
2019-04-11T14:27:26.990Z,16.42
2019-04-11T14:30:31.733Z,15.05
2019-04-11T14:33:15.282Z,15.45
2019-04-11T14:36:33.180Z,14.83
2019-04-11T14:39:33.067Z,16.17
2019-04-11T14:42:46.242Z,16.60
2019-04-11T14:46:16.313Z,15.80
2019-04-11T14:49:10.535Z,15.20
2019-04-11T14:55:30.860Z,15.35
2019-04-11T14:58:33.392Z,16.62
2019-04-11T15:01:27.945Z,15.18
2019-04-11T15:08:00.773Z,16.65
2019-04-11T15:11:18.676Z,16.87
2019-04-11T15:14:18.973Z,14.85
2019-04-11T15:17:09.668Z,15.08
2019-04-11T15:19:57.893Z,15.50
2019-04-11T15:23:21.358Z,16.12
2019-04-11T15:26:24.459Z,16.50
2019-04-11T15:29:18.921Z,16.67
2019-04-11T15:32:28.893Z,15.55
2019-04-11T15:35:14.478Z,16.93
2019-04-11T15:38:24.554Z,15.55
2019-04-11T15:41:09.055Z,15.30
2019-04-11T15:44:19.092Z,16.07
2019-04-11T15:47:08.761Z,16.90
2019-04-11T15:50:11.441Z,15.32
2019-04-11T16:00:34.588Z,16.02
2019-04-11T16:03:13.296Z,15.60
2019-04-11T16:12:42.307Z,16.65
2019-04-11T16:15:37.951Z,16.15
2019-04-11T16:18:47.122Z,16.23
2019-04-11T16:28:37.772Z,17.87
2019-04-11T16:31:35.562Z,14.85
2019-04-11T16:34:48.484Z,17.77
2019-04-11T16:37:29.942Z,15.90
2019-04-11T16:40:38.393Z,15.38
2019-04-11T16:49:47.128Z,14.87
2019-04-11T16:52:59.199Z,17.52
2019-04-11T16:55:49.614Z,16.90
2019-04-11T16:59:03.306Z,16.73
2019-04-11T17:05:37.675Z,16.32
2019-04-11T17:08:41.764Z,15.30
2019-04-11T17:11:26.911Z,15.03
2019-04-11T17:14:11.933Z,15.65
2019-04-11T17:17:14.511Z,15.45
2019-04-11T17:20:10.851Z,15.53
2019-04-11T17:26:44.865Z,15.70
2019-04-11T17:29:29.321Z,16.35
2019-04-11T17:32:17.745Z,15.93
2019-04-11T17:35:02.025Z,16.37
2019-04-11T17:37:53.756Z,14.00
2019-04-11T17:40:51.917Z,15.85
2019-04-11T17:43:37.327Z,14.78
2019-04-11T17:49:43.484Z,15.20
2019-04-11T17:52:07.616Z,14.35
2019-04-11T17:55:15.166Z,15.68
2019-04-11T17:58:07.350Z,15.28
2019-04-11T18:01:05.245Z,14.95
2019-04-11T18:04:13.294Z,15.13
2019-04-11T18:07:41.468Z,14.33
2019-04-11T18:09:59.446Z,14.68
2019-04-11T18:16:07.873Z,13.10
2019-04-11T18:19:18.164Z,14.15
2019-04-11T18:22:07.844Z,14.13
2019-04-11T18:24:54.504Z,13.90
2019-04-11T18:27:38.230Z,14.10
2019-04-11T18:30:29.633Z,14.63
2019-04-11T18:33:15.022Z,13.78
2019-04-11T18:36:25.354Z,14.18
2019-04-11T18:39:09.841Z,13.35
2019-04-11T18:42:20.743Z,12.95
2019-04-11T18:45:05.969Z,14.85
2019-04-11T18:47:57.497Z,14.43
2019-04-11T18:50:41.832Z,12.50
2019-04-11T18:53:52.046Z,13.48
2019-04-11T18:56:38.027Z,13.05
2019-04-11T18:59:21.670Z,14.28
2019-04-11T19:02:13.067Z,14.25
2019-04-11T19:05:02.136Z,12.82
2019-04-11T19:08:14.370Z,13.85
2019-04-11T19:10:58.749Z,12.90
2019-04-11T19:16:50.000Z,11.88
2019-04-11T19:19:38.813Z,13.08
2019-04-11T19:22:36.678Z,12.58
2019-04-11T19:28:04.556Z,12.35
2019-04-11T19:30:36.829Z,12.73
2019-04-11T19:33:21.630Z,12.60
2019-04-11T19:36:12.907Z,12.30
2019-04-11T19:38:56.981Z,12.85
2019-04-11T19:41:29.055Z,12.53
2019-04-11T19:44:37.628Z,12.82
2019-04-11T19:47:22.277Z,12.23
2019-04-11T19:50:16.128Z,13.15
2019-04-11T19:53:10.347Z,13.70
2019-04-11T19:59:28.024Z,12.98
2019-04-11T20:02:00.310Z,12.53
2019-04-11T20:04:51.655Z,15.45
2019-04-11T20:07:35.119Z,12.13
2019-04-11T20:10:26.284Z,12.45
2019-04-11T20:13:10.520Z,12.43
2019-04-11T20:15:43.110Z,12.58
2019-04-11T20:19:00.819Z,13.40
2019-04-11T20:25:23.761Z,11.83
2019-04-11T20:28:19.971Z,13.22
2019-04-11T20:31:08.277Z,12.20
2019-04-11T20:33:40.356Z,12.25
2019-04-11T20:36:33.373Z,11.30
2019-04-11T20:39:09.832Z,11.48
2019-04-11T20:41:54.230Z,11.10
2019-04-11T20:45:05.727Z,11.03
2019-04-11T20:47:50.999Z,11.12
2019-04-11T20:50:23.786Z,11.12
2019-04-11T20:53:13.097Z,11.08
2019-04-11T20:56:00.755Z,11.12
2019-04-11T20:58:44.730Z,11.78
2019-04-11T21:01:56.429Z,10.88
2019-04-11T21:08:41.072Z,10.78
2019-04-11T21:11:36.185Z,11.57
2019-04-11T21:14:37.044Z,10.90
2019-04-11T21:17:29.808Z,11.57
2019-04-11T21:20:15.274Z,11.48
2019-04-11T21:23:09.810Z,10.55
2019-04-11T21:25:53.845Z,11.22
2019-04-11T21:28:27.819Z,11.00
2019-04-11T21:31:18.665Z,10.53
2019-04-11T21:33:51.262Z,10.75
2019-04-11T21:36:37.444Z,11.03
2019-04-11T21:39:49.391Z,11.70
2019-04-11T21:42:36.054Z,11.22
2019-04-11T21:45:27.312Z,11.80
2019-04-11T21:48:12.231Z,10.05
2019-04-11T21:50:44.547Z,12.03
2019-04-11T21:53:56.410Z,11.25
2019-04-11T21:56:40.650Z,11.48
2019-04-11T21:59:25.544Z,10.40
2019-04-11T22:02:17.154Z,11.40
2019-04-11T22:05:02.170Z,12.18
2019-04-11T22:07:55.636Z,12.00
2019-04-11T22:10:55.206Z,12.88
2019-04-11T22:13:46.391Z,11.50
2019-04-11T22:16:19.101Z,12.45
2019-04-11T22:18:51.507Z,12.70
2019-04-11T22:21:23.909Z,12.05
2019-04-11T22:24:15.206Z,13.25
2019-04-11T22:29:56.359Z,12.45
2019-04-11T22:32:29.020Z,12.80
2019-04-11T22:35:13.533Z,12.45
2019-04-11T22:38:01.626Z,12.20
2019-04-11T22:40:40.328Z,13.28
2019-04-11T22:43:24.174Z,11.55
2019-04-11T22:45:52.739Z,12.60
2019-04-11T22:48:26.558Z,11.90
2019-04-11T22:54:12.968Z,12.05
2019-04-11T22:56:43.228Z,12.28
2019-04-11T22:59:27.552Z,13.78
2019-04-11T23:02:39.952Z,11.80
2019-04-11T23:05:23.924Z,12.58
2019-04-11T23:08:07.356Z,12.03
2019-04-11T23:10:59.430Z,12.63
2019-04-11T23:13:45.569Z,11.50
2019-04-11T23:16:36.125Z,12.10
2019-04-11T23:19:20.416Z,12.60
2019-04-11T23:22:04.224Z,12.20
2019-04-11T23:24:55.323Z,12.90
2019-04-11T23:27:38.700Z,12.75
2019-04-11T23:30:29.879Z,11.85
2019-04-11T23:33:14.056Z,13.88
2019-04-11T23:35:58.203Z,11.83
2019-04-11T23:38:42.276Z,11.38
2019-04-11T23:41:25.799Z,13.18
2019-04-11T23:44:17.999Z,12.43
2019-04-11T23:50:32.193Z,12.47
2019-04-11T23:53:16.301Z,13.32
2019-04-11T23:56:00.811Z,13.53
2019-04-11T23:58:51.999Z,12.33
